createdAt,value
2022-10-30T00:07:47.131Z,101216.44
2022-10-30T00:15:36.590Z,101220.66
2022-10-30T00:35:16.410Z,101188.03
2022-10-30T00:37:48.946Z,101197.22
2022-10-30T00:40:38.308Z,101196.53
2022-10-30T00:43:57.661Z,101200.34
2022-10-30T00:47:10.958Z,101205.25
2022-10-30T00:50:39.428Z,101204.00
2022-10-30T00:56:56.642Z,101201.03
2022-10-30T00:59:40.453Z,101187.03
2022-10-30T01:02:19.050Z,101178.84
2022-10-30T01:16:47.620Z,101169.03
2022-10-30T01:36:00.151Z,101156.88
2022-10-30T01:38:43.270Z,101165.16
2022-10-30T01:45:12.203Z,101161.19
2022-10-30T01:52:02.027Z,101160.41
2022-10-30T01:55:02.075Z,101157.16
2022-10-30T01:57:39.834Z,101151.66
2022-10-30T02:00:24.921Z,101143.06
2022-10-30T02:03:12.622Z,101133.13
2022-10-30T02:05:46.842Z,101134.78
2022-10-30T02:08:19.946Z,101131.63
2022-10-30T02:10:52.465Z,101131.81
2022-10-30T02:13:22.952Z,101132.97
2022-10-30T02:15:53.126Z,101137.28
2022-10-30T02:18:23.132Z,101139.28
2022-10-30T02:20:56.037Z,101131.63
2022-10-30T02:23:26.428Z,101131.66
2022-10-30T02:25:56.455Z,101137.44
2022-10-30T02:28:26.614Z,101137.78
2022-10-30T02:31:09.807Z,101128.16
2022-10-30T02:33:39.673Z,101136.25
2022-10-30T02:36:15.624Z,101126.81
2022-10-30T02:38:52.297Z,101124.50
2022-10-30T02:41:44.939Z,101126.50
2022-10-30T02:44:23.653Z,101122.69
2022-10-30T02:47:03.722Z,101132.31
2022-10-30T02:50:07.437Z,101129.78
2022-10-30T02:52:48.316Z,101127.66
2022-10-30T02:55:18.906Z,101126.34
2022-10-30T02:58:03.965Z,101128.28
2022-10-30T03:01:30.837Z,101128.47
2022-10-30T03:04:01.158Z,101121.66
2022-10-30T03:06:31.120Z,101120.00
2022-10-30T03:09:03.502Z,101124.00
2022-10-30T03:11:33.704Z,101127.47
2022-10-30T03:14:03.718Z,101125.94
2022-10-30T03:16:33.676Z,101130.78
2022-10-30T03:19:04.183Z,101135.75
2022-10-30T03:21:34.071Z,101134.41
2022-10-30T03:24:07.473Z,101132.44
2022-10-30T03:26:52.334Z,101143.22
2022-10-30T03:29:22.460Z,101137.56
2022-10-30T03:32:11.119Z,101132.41
2022-10-30T03:34:41.439Z,101128.13
2022-10-30T03:37:11.268Z,101126.94
2022-10-30T03:39:43.926Z,101141.19
2022-10-30T03:42:14.492Z,101130.44
2022-10-30T03:44:44.600Z,101118.50
2022-10-30T03:47:29.779Z,101108.06
2022-10-30T03:50:00.235Z,101105.41
2022-10-30T03:52:45.358Z,101104.25
2022-10-30T03:55:33.069Z,101095.44
2022-10-30T03:58:03.461Z,101083.69
2022-10-30T04:00:33.592Z,101087.47
2022-10-30T04:03:04.755Z,101079.66
2022-10-30T04:05:44.055Z,101083.00
2022-10-30T04:08:16.096Z,101081.00
2022-10-30T04:11:03.978Z,101069.25
2022-10-30T04:13:34.527Z,101061.13
2022-10-30T04:16:19.853Z,101082.69
2022-10-30T04:18:50.453Z,101104.06
2022-10-30T04:21:20.897Z,101110.03
2022-10-30T04:23:54.034Z,101090.31
2022-10-30T04:26:26.792Z,101088.16
2022-10-30T04:28:57.062Z,101069.59
2022-10-30T04:31:26.844Z,101081.50
2022-10-30T04:34:12.423Z,101076.25
2022-10-30T04:36:42.618Z,101088.00
2022-10-30T04:39:12.663Z,101085.38
2022-10-30T04:41:45.683Z,101101.94
2022-10-30T04:44:15.532Z,101099.63
2022-10-30T04:46:45.617Z,101124.31
2022-10-30T04:49:15.329Z,101128.47
2022-10-30T04:51:46.434Z,101134.28
2022-10-30T04:54:16.469Z,101129.63
2022-10-30T04:56:48.831Z,101129.81
2022-10-30T04:59:19.019Z,101122.00
2022-10-30T05:02:04.214Z,101131.28
2022-10-30T05:04:49.428Z,101131.63
2022-10-30T05:07:20.580Z,101122.66
2022-10-30T05:10:05.537Z,101122.84
2022-10-30T05:12:38.165Z,101114.03
2022-10-30T05:15:09.269Z,101112.38
2022-10-30T05:17:55.739Z,101129.97
2022-10-30T05:20:26.026Z,101123.84
2022-10-30T05:22:58.873Z,101120.03
2022-10-30T05:25:29.712Z,101120.66
2022-10-30T05:28:17.067Z,101109.56
2022-10-30T05:30:47.722Z,101104.75
2022-10-30T05:33:32.624Z,101100.28
2022-10-30T05:36:17.448Z,101094.47
2022-10-30T05:39:03.018Z,101086.53
2022-10-30T05:41:33.094Z,101077.38
2022-10-30T05:44:05.498Z,101073.22
2022-10-30T05:46:35.612Z,101062.13
2022-10-30T05:49:05.603Z,101057.50
2022-10-30T05:51:38.102Z,101035.44
2022-10-30T05:54:10.305Z,101118.50
2022-10-30T05:56:40.479Z,101132.53
2022-10-30T05:59:12.878Z,101115.13
2022-10-30T06:04:32.510Z,101048.00
2022-10-30T06:07:02.534Z,101012.88
2022-10-30T06:09:32.535Z,101110.69
2022-10-30T06:12:17.480Z,101113.03
2022-10-30T06:14:50.427Z,101095.28
2022-10-30T06:17:20.163Z,101077.91
2022-10-30T06:20:05.074Z,101062.13
2022-10-30T06:22:35.447Z,101076.25
2022-10-30T06:25:05.595Z,101079.03
2022-10-30T06:27:37.252Z,101082.22
2022-10-30T06:30:11.886Z,101078.72
2022-10-30T06:32:42.237Z,101083.00
2022-10-30T06:35:12.693Z,101063.63
2022-10-30T06:37:48.202Z,101066.25
2022-10-30T06:40:33.569Z,101069.75
2022-10-30T06:43:04.083Z,101070.56
2022-10-30T06:45:36.805Z,101072.41
2022-10-30T06:48:07.431Z,101079.53
2022-10-30T06:50:56.811Z,101078.38
2022-10-30T06:53:27.260Z,101068.78
2022-10-30T06:55:59.038Z,101071.91
2022-10-30T06:58:30.369Z,101065.59
2022-10-30T07:01:04.835Z,101073.56
2022-10-30T07:03:35.285Z,101075.69
2022-10-30T07:06:05.337Z,101081.19
2022-10-30T07:08:35.693Z,101083.00
2022-10-30T07:11:05.901Z,101084.31
2022-10-30T07:13:36.363Z,101086.63
2022-10-30T07:16:09.454Z,101088.47
2022-10-30T07:18:39.500Z,101090.28
2022-10-30T07:21:09.373Z,101109.03
2022-10-30T07:23:54.305Z,101105.53
2022-10-30T07:26:24.371Z,101103.38
2022-10-30T07:29:09.439Z,101101.88
2022-10-30T07:32:02.721Z,101101.25
2022-10-30T07:34:34.449Z,101117.66
2022-10-30T07:37:04.264Z,101118.31
2022-10-30T07:39:34.533Z,101134.09
2022-10-30T07:42:19.371Z,101118.31
2022-10-30T07:44:49.423Z,101127.47
2022-10-30T07:47:21.841Z,101124.66
2022-10-30T07:50:07.108Z,101115.53
2022-10-30T07:52:37.266Z,101114.22
2022-10-30T07:55:07.771Z,101121.84
2022-10-30T07:57:38.847Z,101110.06
2022-10-30T08:00:11.073Z,101112.38
2022-10-30T08:02:44.157Z,101112.03
2022-10-30T08:05:30.431Z,101109.88
2022-10-30T08:08:01.301Z,101112.72
2022-10-30T08:10:46.448Z,101133.31
2022-10-30T08:13:18.524Z,101127.47
2022-10-30T08:15:49.566Z,101122.00
2022-10-30T08:18:22.218Z,101124.16
2022-10-30T08:20:53.122Z,101117.53
2022-10-30T08:23:23.261Z,101120.03
2022-10-30T08:25:53.016Z,101122.84
2022-10-30T08:28:25.803Z,101122.00
2022-10-30T08:30:57.933Z,101119.97
2022-10-30T08:33:30.936Z,101129.88
2022-10-30T08:36:02.386Z,101128.69
2022-10-30T08:38:32.660Z,101130.16
2022-10-30T08:41:04.669Z,101124.88
2022-10-30T08:43:35.533Z,101127.31
2022-10-30T08:46:05.244Z,101117.72
2022-10-30T08:48:37.920Z,101118.00
2022-10-30T08:51:07.989Z,101124.47
2022-10-30T08:53:38.096Z,101119.16
2022-10-30T08:56:08.776Z,101126.28
2022-10-30T08:58:38.901Z,101124.56
2022-10-30T09:01:08.964Z,101130.19
2022-10-30T09:03:43.086Z,101136.44
2022-10-30T09:06:12.953Z,101133.53
2022-10-30T09:08:43.018Z,101133.50
2022-10-30T09:11:12.754Z,101142.59
2022-10-30T09:13:57.828Z,101133.25
2022-10-30T09:16:42.945Z,101125.00
2022-10-30T09:19:18.795Z,101132.97
2022-10-30T09:21:49.191Z,101134.69
2022-10-30T09:24:34.465Z,101126.56
2022-10-30T09:27:04.812Z,101128.88
2022-10-30T09:29:35.660Z,101117.31
2022-10-30T09:32:10.021Z,101125.91
2022-10-30T09:34:57.698Z,101107.00
2022-10-30T09:37:28.306Z,101107.91
2022-10-30T09:39:58.403Z,101111.31
2022-10-30T09:42:48.467Z,101107.41
2022-10-30T09:45:49.586Z,101096.69
2022-10-30T09:48:48.833Z,101103.69
2022-10-30T09:51:36.842Z,101105.41
2022-10-30T09:54:17.332Z,101101.56
2022-10-30T09:56:52.540Z,101114.84
2022-10-30T09:59:38.138Z,101110.97
2022-10-30T10:02:34.102Z,101104.81
2022-10-30T10:05:24.422Z,101122.44
2022-10-30T10:08:01.183Z,101106.44
2022-10-30T10:10:41.117Z,101116.91
2022-10-30T10:13:25.967Z,101111.69
2022-10-30T10:16:20.344Z,101129.13
2022-10-30T10:18:54.125Z,101122.56
2022-10-30T10:21:27.724Z,101115.97
2022-10-30T10:24:03.555Z,101113.88
2022-10-30T10:26:51.886Z,101119.81
2022-10-30T10:29:49.710Z,101110.13
2022-10-30T10:32:47.663Z,101110.50
2022-10-30T10:35:39.063Z,101122.47
2022-10-30T10:38:38.090Z,101114.78
2022-10-30T10:41:36.149Z,101113.50
2022-10-30T10:44:23.797Z,101123.16
2022-10-30T10:47:17.459Z,101117.31
2022-10-30T10:50:20.781Z,101119.03
2022-10-30T10:52:56.014Z,101115.66
2022-10-30T10:55:30.317Z,101104.75
2022-10-30T10:58:09.789Z,101099.47
2022-10-30T11:00:55.593Z,101098.03
2022-10-30T11:03:30.744Z,101097.22
2022-10-30T11:06:04.693Z,101097.44
2022-10-30T11:08:36.064Z,101095.38
2022-10-30T11:11:07.786Z,101085.06
2022-10-30T11:13:55.852Z,101084.63
2022-10-30T11:16:32.798Z,101088.16
2022-10-30T11:19:05.843Z,101089.19
2022-10-30T11:21:41.098Z,101081.56
2022-10-30T11:24:29.731Z,101082.34
2022-10-30T11:27:02.307Z,101090.50
2022-10-30T11:29:35.086Z,101085.44
2022-10-30T11:32:08.834Z,101093.13
2022-10-30T11:34:41.932Z,101090.81
2022-10-30T11:37:33.798Z,101098.31
2022-10-30T11:40:07.118Z,101101.50
2022-10-30T11:42:38.448Z,101106.84
2022-10-30T11:45:18.201Z,101107.00
2022-10-30T11:47:49.572Z,101101.88
2022-10-30T11:50:35.676Z,101096.56
2022-10-30T11:53:15.265Z,101097.59
2022-10-30T11:55:49.799Z,101100.41
2022-10-30T11:58:38.437Z,101088.72
2022-10-30T12:01:49.054Z,101089.59
2022-10-30T12:04:33.245Z,101083.50
2022-10-30T12:07:35.503Z,101085.00
2022-10-30T12:12:45.532Z,101084.38
2022-10-30T12:15:54.167Z,101084.97
2022-10-30T12:18:41.679Z,101083.72
2022-10-30T12:35:47.433Z,101076.22
2022-10-30T12:38:31.301Z,101086.69
2022-10-30T12:41:11.858Z,101083.06
2022-10-30T12:44:03.139Z,101081.06
2022-10-30T12:46:38.877Z,101086.09
2022-10-30T12:49:19.907Z,101083.94
2022-10-30T12:52:02.009Z,101077.25
2022-10-30T12:54:47.442Z,101072.50
2022-10-30T13:07:01.124Z,101064.25
2022-10-30T13:09:44.490Z,101073.13
2022-10-30T13:12:28.157Z,101068.59
2022-10-30T13:15:25.051Z,101063.06
2022-10-30T13:26:16.833Z,101054.56
2022-10-30T13:29:29.167Z,101061.44
2022-10-30T13:58:17.045Z,101060.22
2022-10-30T14:08:44.937Z,101061.84
2022-10-30T14:16:01.314Z,101068.44
2022-10-30T14:19:04.278Z,101065.78
2022-10-30T14:25:36.441Z,101060.41
2022-10-30T14:28:21.594Z,101067.84
2022-10-30T14:31:13.788Z,101068.53
2022-10-30T14:33:53.417Z,101072.31
2022-10-30T14:44:55.361Z,101073.59
2022-10-30T14:47:58.602Z,101071.47
2022-10-30T14:50:49.561Z,101080.13
2022-10-30T14:53:50.675Z,101070.13
2022-10-30T14:56:32.166Z,101072.25
2022-10-30T14:59:25.757Z,101069.09
2022-10-30T15:02:21.207Z,101065.06
2022-10-30T15:05:09.689Z,101073.44
2022-10-30T15:07:51.120Z,101071.38
2022-10-30T15:10:28.364Z,101071.31
2022-10-30T15:13:18.149Z,101072.16
2022-10-30T15:15:49.038Z,101073.56
2022-10-30T15:18:25.625Z,101071.22
2022-10-30T15:21:23.204Z,101068.63
2022-10-30T15:24:16.750Z,101065.81
2022-10-30T15:27:03.214Z,101068.63
2022-10-30T15:29:36.744Z,101073.09
2022-10-30T15:32:17.531Z,101073.78
2022-10-30T15:35:04.109Z,101076.38
2022-10-30T15:37:35.129Z,101066.53
2022-10-30T15:40:20.135Z,101076.50
2022-10-30T15:42:53.129Z,101073.34
2022-10-30T15:45:26.457Z,101076.59
2022-10-30T15:48:03.519Z,101075.91
2022-10-30T15:50:57.378Z,101076.03
2022-10-30T15:53:31.078Z,101079.41
2022-10-30T15:56:04.185Z,101080.00
2022-10-30T15:58:37.261Z,101078.59
2022-10-30T16:01:07.410Z,101078.69
2022-10-30T16:03:55.321Z,101080.34
2022-10-30T16:06:30.897Z,101073.91
2022-10-30T16:09:01.291Z,101071.56
2022-10-30T16:11:34.082Z,101071.31
2022-10-30T16:14:21.275Z,101072.16
2022-10-30T16:16:52.004Z,101068.38
2022-10-30T16:19:29.108Z,101066.75
2022-10-30T16:22:01.703Z,101067.28
2022-10-30T16:24:35.123Z,101058.13
2022-10-30T16:27:27.503Z,101071.09
2022-10-30T16:30:00.410Z,101055.75
2022-10-30T16:32:33.847Z,101065.69
2022-10-30T16:35:05.985Z,101064.69
2022-10-30T16:37:38.504Z,101072.75
2022-10-30T16:40:15.689Z,101066.44
2022-10-30T16:42:54.768Z,101067.09
2022-10-30T16:45:50.749Z,101066.28
2022-10-30T16:48:38.684Z,101065.78
2022-10-30T16:51:09.006Z,101071.09
2022-10-30T16:53:39.207Z,101075.41
2022-10-30T16:56:20.615Z,101075.88
2022-10-30T16:58:54.244Z,101082.19
2022-10-30T17:01:28.640Z,101081.19
2022-10-30T17:03:59.991Z,101089.75
2022-10-30T17:06:44.682Z,101086.66
2022-10-30T17:09:24.400Z,101080.47
2022-10-30T17:12:09.569Z,101081.97
2022-10-30T17:15:04.667Z,101092.09
2022-10-30T17:17:37.452Z,101091.88
2022-10-30T17:20:31.230Z,101089.75
2022-10-30T17:23:20.634Z,101098.16
2022-10-30T17:25:51.319Z,101098.63
2022-10-30T17:28:28.793Z,101097.47
2022-10-30T17:31:22.748Z,101103.28
2022-10-30T17:34:14.069Z,101109.88
2022-10-30T17:36:44.925Z,101114.69
2022-10-30T17:39:15.042Z,101113.31
2022-10-30T17:41:46.195Z,101104.56
2022-10-30T17:44:22.554Z,101110.34
2022-10-30T17:46:55.272Z,101114.31
2022-10-30T17:49:31.115Z,101111.78
2022-10-30T17:52:02.403Z,101113.44
2022-10-30T17:54:32.362Z,101111.03
2022-10-30T17:57:18.647Z,101118.97
2022-10-30T17:59:50.741Z,101109.75
2022-10-30T18:02:38.366Z,101102.56
2022-10-30T18:05:17.105Z,101106.69
2022-10-30T18:07:47.729Z,101106.31
2022-10-30T18:10:18.108Z,101109.63
2022-10-30T18:12:47.919Z,101112.78
2022-10-30T18:15:29.429Z,101114.94
2022-10-30T18:18:01.960Z,101119.09
2022-10-30T18:20:46.866Z,101108.22
2022-10-30T18:26:17.509Z,101101.28
2022-10-30T18:28:48.146Z,101106.47
2022-10-30T18:31:20.557Z,101101.72
2022-10-30T18:34:13.970Z,101104.22
2022-10-30T18:36:58.775Z,101110.78
2022-10-30T18:39:43.597Z,101108.13
2022-10-30T18:42:13.718Z,101118.81
2022-10-30T18:44:43.702Z,101115.97
2022-10-30T18:47:28.546Z,101113.91
2022-10-30T18:50:03.741Z,101117.00
2022-10-30T18:52:33.557Z,101128.53
2022-10-30T18:55:03.786Z,101122.56
2022-10-30T18:57:33.644Z,101111.44
2022-10-30T19:00:04.194Z,101113.94
2022-10-30T19:02:49.196Z,101108.34
2022-10-30T19:05:29.675Z,101107.31
2022-10-30T19:08:01.221Z,101100.94
2022-10-30T19:10:48.667Z,101098.03
2022-10-30T19:13:22.351Z,101090.97
2022-10-30T19:15:59.817Z,101098.78
2022-10-30T19:18:46.523Z,101091.97
2022-10-30T19:21:21.694Z,101086.03
2022-10-30T19:23:52.801Z,101091.56
2022-10-30T19:26:23.108Z,101088.72
2022-10-30T19:28:53.184Z,101089.72
2022-10-30T19:31:23.486Z,101094.22
2022-10-30T19:34:13.199Z,101096.31
2022-10-30T19:37:12.059Z,101082.16
2022-10-30T19:41:17.802Z,101093.50
2022-10-30T19:44:18.960Z,101092.25
2022-10-30T19:46:56.435Z,101088.09
2022-10-30T19:49:33.147Z,101094.03
2022-10-30T19:52:06.551Z,101088.72
2022-10-30T19:54:41.859Z,101083.34
2022-10-30T19:57:27.585Z,101079.19
2022-10-30T20:00:05.206Z,101085.97
2022-10-30T20:02:46.648Z,101083.00
2022-10-30T20:05:45.763Z,101087.06
2022-10-30T20:08:22.481Z,101083.41
2022-10-30T20:10:54.564Z,101084.09
2022-10-30T20:13:27.146Z,101083.66
2022-10-30T20:17:16.790Z,101092.72
2022-10-30T20:28:43.684Z,101105.03
2022-10-30T20:32:21.747Z,101108.47
2022-10-30T20:35:57.590Z,101113.41
2022-10-30T20:43:55.370Z,101120.78
2022-10-30T20:54:39.011Z,101127.00
2022-10-30T20:57:21.177Z,101126.69
2022-10-30T21:00:01.862Z,101133.38
2022-10-30T21:03:17.746Z,101132.19
2022-10-30T21:06:31.895Z,101129.97
2022-10-30T21:09:43.417Z,101123.34
2022-10-30T21:12:20.862Z,101116.72
2022-10-30T21:15:05.683Z,101117.56
2022-10-30T21:17:37.076Z,101118.97
2022-10-30T21:20:13.809Z,101114.81
2022-10-30T21:22:58.968Z,101119.75
2022-10-30T21:25:44.079Z,101118.13
2022-10-30T21:28:33.056Z,101120.88
2022-10-30T21:31:14.175Z,101120.88
2022-10-30T21:33:44.347Z,101113.22
2022-10-30T21:36:17.549Z,101119.50
2022-10-30T21:38:52.730Z,101117.41
2022-10-30T21:41:38.972Z,101118.97
2022-10-30T21:44:09.676Z,101116.16
2022-10-30T21:46:43.111Z,101114.81
2022-10-30T21:49:18.049Z,101112.22
2022-10-30T21:51:53.307Z,101113.56
2022-10-30T21:54:50.462Z,101107.13
2022-10-30T21:58:09.621Z,101114.91
2022-10-30T22:01:34.780Z,101115.75
2022-10-30T22:04:14.587Z,101126.16
2022-10-30T22:06:46.965Z,101120.53
2022-10-30T22:09:44.615Z,101126.41
2022-10-30T22:13:01.877Z,101120.41
2022-10-30T22:16:00.894Z,101116.78
2022-10-30T22:18:55.067Z,101121.72
2022-10-30T22:22:00.489Z,101123.44
2022-10-30T22:25:09.488Z,101126.75
2022-10-30T22:27:58.565Z,101125.47
2022-10-30T22:30:42.852Z,101128.19
2022-10-30T22:33:32.971Z,101121.84
2022-10-30T22:55:57.829Z,101118.91
2022-10-30T23:01:52.722Z,101118.91
2022-10-30T23:04:44.781Z,101126.59
2022-10-30T23:07:43.582Z,101124.38
2022-10-30T23:10:28.168Z,101126.38
2022-10-30T23:13:09.158Z,101123.53
2022-10-30T23:16:01.725Z,101124.16
2022-10-30T23:18:56.295Z,101127.41
2022-10-30T23:21:33.733Z,101128.19
2022-10-30T23:24:43.547Z,101124.97
2022-10-30T23:35:30.642Z,101133.28
2022-10-30T23:42:46.769Z,101142.81
2022-10-30T23:46:13.530Z,101142.22
2022-10-30T23:49:17.440Z,101136.91
2022-10-30T23:59:16.138Z,101147.06
